sensor_id;sensor_type;location;lat;lon;timestamp;P1;durP1;ratioP1;P2;durP2;ratioP2
82387;SDS011;72027;47.420;9.310;2024-03-17T00:02:16;4.85;;;1.70;;
82387;SDS011;72027;47.420;9.310;2024-03-17T00:04:42;8.98;;;1.83;;
82387;SDS011;72027;47.420;9.310;2024-03-17T00:07:11;5.78;;;1.63;;
82387;SDS011;72027;47.420;9.310;2024-03-17T00:09:36;5.63;;;1.63;;
82387;SDS011;72027;47.420;9.310;2024-03-17T00:12:04;4.45;;;1.70;;
82387;SDS011;72027;47.420;9.310;2024-03-17T00:14:30;4.57;;;1.67;;
82387;SDS011;72027;47.420;9.310;2024-03-17T00:16:57;7.35;;;1.60;;
82387;SDS011;72027;47.420;9.310;2024-03-17T00:19:23;4.37;;;1.73;;
82387;SDS011;72027;47.420;9.310;2024-03-17T00:21:50;3.95;;;1.60;;
82387;SDS011;72027;47.420;9.310;2024-03-17T00:24:18;4.45;;;1.65;;
82387;SDS011;72027;47.420;9.310;2024-03-17T00:26:45;5.38;;;1.88;;
82387;SDS011;72027;47.420;9.310;2024-03-17T00:29:11;7.13;;;2.50;;
82387;SDS011;72027;47.420;9.310;2024-03-17T00:31:39;4.30;;;1.40;;
82387;SDS011;72027;47.420;9.310;2024-03-17T00:34:06;4.72;;;2.10;;
82387;SDS011;72027;47.420;9.310;2024-03-17T00:36:33;5.50;;;1.52;;
82387;SDS011;72027;47.420;9.310;2024-03-17T00:38:59;8.23;;;1.70;;
82387;SDS011;72027;47.420;9.310;2024-03-17T00:41:27;4.13;;;1.38;;
82387;SDS011;72027;47.420;9.310;2024-03-17T00:43:53;5.70;;;2.33;;
82387;SDS011;72027;47.420;9.310;2024-03-17T00:48:46;3.60;;;1.45;;
82387;SDS011;72027;47.420;9.310;2024-03-17T00:51:14;3.95;;;1.40;;
82387;SDS011;72027;47.420;9.310;2024-03-17T00:53:40;2.50;;;1.10;;
82387;SDS011;72027;47.420;9.310;2024-03-17T00:56:07;4.22;;;1.40;;
82387;SDS011;72027;47.420;9.310;2024-03-17T00:58:35;3.38;;;1.13;;
82387;SDS011;72027;47.420;9.310;2024-03-17T01:01:02;3.45;;;1.60;;
82387;SDS011;72027;47.420;9.310;2024-03-17T01:03:28;2.90;;;1.47;;
82387;SDS011;72027;47.420;9.310;2024-03-17T01:08:20;2.80;;;1.30;;
82387;SDS011;72027;47.420;9.310;2024-03-17T01:10:48;4.35;;;1.60;;
82387;SDS011;72027;47.420;9.310;2024-03-17T01:13:15;4.07;;;1.90;;
82387;SDS011;72027;47.420;9.310;2024-03-17T01:15:44;3.58;;;1.40;;
82387;SDS011;72027;47.420;9.310;2024-03-17T01:18:10;5.63;;;1.70;;
82387;SDS011;72027;47.420;9.310;2024-03-17T01:20:37;2.55;;;1.65;;
82387;SDS011;72027;47.420;9.310;2024-03-17T01:23:04;6.00;;;1.65;;
82387;SDS011;72027;47.420;9.310;2024-03-17T01:25:32;7.80;;;1.75;;
82387;SDS011;72027;47.420;9.310;2024-03-17T01:28:01;2.75;;;1.52;;
82387;SDS011;72027;47.420;9.310;2024-03-17T01:30:28;5.85;;;1.98;;
82387;SDS011;72027;47.420;9.310;2024-03-17T01:32:56;6.47;;;1.70;;
82387;SDS011;72027;47.420;9.310;2024-03-17T01:35:23;5.85;;;1.60;;
82387;SDS011;72027;47.420;9.310;2024-03-17T01:37:50;2.35;;;1.55;;
82387;SDS011;72027;47.420;9.310;2024-03-17T01:40:16;2.00;;;1.63;;
82387;SDS011;72027;47.420;9.310;2024-03-17T01:42:42;7.28;;;1.42;;
82387;SDS011;72027;47.420;9.310;2024-03-17T01:45:24;3.23;;;1.80;;
82387;SDS011;72027;47.420;9.310;2024-03-17T01:47:54;7.68;;;1.98;;
82387;SDS011;72027;47.420;9.310;2024-03-17T01:50:23;5.30;;;2.60;;
82387;SDS011;72027;47.420;9.310;2024-03-17T01:52:51;4.40;;;1.65;;
82387;SDS011;72027;47.420;9.310;2024-03-17T01:55:19;3.33;;;1.75;;
82387;SDS011;72027;47.420;9.310;2024-03-17T01:57:47;4.55;;;2.22;;
82387;SDS011;72027;47.420;9.310;2024-03-17T02:00:14;7.35;;;2.45;;
82387;SDS011;72027;47.420;9.310;2024-03-17T02:02:41;8.02;;;3.45;;
82387;SDS011;72027;47.420;9.310;2024-03-17T02:05:09;5.63;;;2.67;;
82387;SDS011;72027;47.420;9.310;2024-03-17T02:07:36;9.98;;;4.28;;
82387;SDS011;72027;47.420;9.310;2024-03-17T02:10:02;8.70;;;3.63;;
82387;SDS011;72027;47.420;9.310;2024-03-17T02:12:30;12.90;;;4.55;;
82387;SDS011;72027;47.420;9.310;2024-03-17T02:14:57;8.88;;;4.03;;
82387;SDS011;72027;47.420;9.310;2024-03-17T02:17:24;7.22;;;3.60;;
82387;SDS011;72027;47.420;9.310;2024-03-17T02:19:50;7.40;;;4.00;;
82387;SDS011;72027;47.420;9.310;2024-03-17T02:22:19;5.68;;;2.97;;
82387;SDS011;72027;47.420;9.310;2024-03-17T02:24:45;5.85;;;3.58;;
82387;SDS011;72027;47.420;9.310;2024-03-17T02:27:12;6.47;;;3.75;;
82387;SDS011;72027;47.420;9.310;2024-03-17T02:29:39;10.38;;;4.35;;
82387;SDS011;72027;47.420;9.310;2024-03-17T02:32:06;12.48;;;5.88;;
82387;SDS011;72027;47.420;9.310;2024-03-17T02:34:33;9.73;;;4.72;;
82387;SDS011;72027;47.420;9.310;2024-03-17T02:37:00;11.98;;;5.53;;
82387;SDS011;72027;47.420;9.310;2024-03-17T02:39:28;14.57;;;6.50;;
82387;SDS011;72027;47.420;9.310;2024-03-17T02:42:01;11.65;;;5.97;;
82387;SDS011;72027;47.420;9.310;2024-03-17T02:44:29;13.38;;;7.15;;
82387;SDS011;72027;47.420;9.310;2024-03-17T02:46:56;16.55;;;6.93;;
82387;SDS011;72027;47.420;9.310;2024-03-17T02:49:24;21.13;;;9.27;;
82387;SDS011;72027;47.420;9.310;2024-03-17T02:51:52;23.50;;;7.97;;
82387;SDS011;72027;47.420;9.310;2024-03-17T02:54:19;18.85;;;8.15;;
82387;SDS011;72027;47.420;9.310;2024-03-17T02:56:48;13.95;;;7.22;;
82387;SDS011;72027;47.420;9.310;2024-03-17T02:59:15;12.65;;;6.60;;
82387;SDS011;72027;47.420;9.310;2024-03-17T03:01:42;11.00;;;5.70;;
82387;SDS011;72027;47.420;9.310;2024-03-17T03:04:10;10.27;;;5.38;;
82387;SDS011;72027;47.420;9.310;2024-03-17T03:06:37;11.93;;;5.40;;
82387;SDS011;72027;47.420;9.310;2024-03-17T03:09:04;11.10;;;4.72;;
82387;SDS011;72027;47.420;9.310;2024-03-17T03:11:38;8.45;;;3.78;;
82387;SDS011;72027;47.420;9.310;2024-03-17T03:14:06;8.15;;;3.38;;
82387;SDS011;72027;47.420;9.310;2024-03-17T03:16:33;7.85;;;3.45;;
82387;SDS011;72027;47.420;9.310;2024-03-17T03:19:00;5.97;;;2.88;;
82387;SDS011;72027;47.420;9.310;2024-03-17T03:21:27;9.38;;;3.15;;
82387;SDS011;72027;47.420;9.310;2024-03-17T03:23:54;3.50;;;2.15;;
82387;SDS011;72027;47.420;9.310;2024-03-17T03:26:21;3.92;;;2.60;;
82387;SDS011;72027;47.420;9.310;2024-03-17T03:28:50;5.60;;;2.38;;
82387;SDS011;72027;47.420;9.310;2024-03-17T03:31:20;3.30;;;2.00;;
82387;SDS011;72027;47.420;9.310;2024-03-17T03:33:48;9.65;;;1.60;;
82387;SDS011;72027;47.420;9.310;2024-03-17T03:36:15;4.15;;;1.80;;
82387;SDS011;72027;47.420;9.310;2024-03-17T03:38:43;3.55;;;2.03;;
82387;SDS011;72027;47.420;9.310;2024-03-17T03:43:37;8.90;;;1.98;;
82387;SDS011;72027;47.420;9.310;2024-03-17T03:46:04;1.88;;;1.65;;
82387;SDS011;72027;47.420;9.310;2024-03-17T03:48:33;2.42;;;1.60;;
82387;SDS011;72027;47.420;9.310;2024-03-17T03:51:03;3.28;;;1.88;;
82387;SDS011;72027;47.420;9.310;2024-03-17T03:53:31;9.55;;;2.00;;
82387;SDS011;72027;47.420;9.310;2024-03-17T03:55:58;4.40;;;1.92;;
82387;SDS011;72027;47.420;9.310;2024-03-17T03:58:26;6.55;;;1.67;;
82387;SDS011;72027;47.420;9.310;2024-03-17T04:00:54;4.28;;;1.42;;
82387;SDS011;72027;47.420;9.310;2024-03-17T04:03:21;4.78;;;1.80;;
82387;SDS011;72027;47.420;9.310;2024-03-17T04:05:50;4.55;;;1.98;;
82387;SDS011;72027;47.420;9.310;2024-03-17T04:08:19;3.15;;;1.88;;
82387;SDS011;72027;47.420;9.310;2024-03-17T04:10:49;2.85;;;2.10;;
82387;SDS011;72027;47.420;9.310;2024-03-17T04:13:17;3.33;;;1.50;;
82387;SDS011;72027;47.420;9.310;2024-03-17T04:15:44;7.50;;;2.67;;
82387;SDS011;72027;47.420;9.310;2024-03-17T04:18:11;3.83;;;1.75;;
82387;SDS011;72027;47.420;9.310;2024-03-17T04:20:39;7.00;;;1.73;;
82387;SDS011;72027;47.420;9.310;2024-03-17T04:23:08;10.93;;;1.42;;
82387;SDS011;72027;47.420;9.310;2024-03-17T04:25:35;9.93;;;2.30;;
82387;SDS011;72027;47.420;9.310;2024-03-17T04:28:03;4.63;;;1.90;;
82387;SDS011;72027;47.420;9.310;2024-03-17T04:30:30;6.20;;;1.90;;
82387;SDS011;72027;47.420;9.310;2024-03-17T04:32:58;5.65;;;1.88;;
82387;SDS011;72027;47.420;9.310;2024-03-17T04:35:25;7.35;;;1.55;;
82387;SDS011;72027;47.420;9.310;2024-03-17T04:37:52;6.88;;;1.40;;
82387;SDS011;72027;47.420;9.310;2024-03-17T04:42:47;2.50;;;1.08;;
82387;SDS011;72027;47.420;9.310;2024-03-17T04:45:14;1.50;;;1.10;;
82387;SDS011;72027;47.420;9.310;2024-03-17T04:47:42;1.98;;;1.05;;
82387;SDS011;72027;47.420;9.310;2024-03-17T04:50:09;3.55;;;1.88;;
82387;SDS011;72027;47.420;9.310;2024-03-17T04:52:38;3.03;;;1.35;;
82387;SDS011;72027;47.420;9.310;2024-03-17T04:55:05;7.72;;;1.50;;
82387;SDS011;72027;47.420;9.310;2024-03-17T04:57:33;1.63;;;1.13;;
82387;SDS011;72027;47.420;9.310;2024-03-17T05:00:01;2.22;;;1.10;;
82387;SDS011;72027;47.420;9.310;2024-03-17T05:02:31;1.80;;;1.17;;
82387;SDS011;72027;47.420;9.310;2024-03-17T05:04:58;1.02;;;0.80;;
82387;SDS011;72027;47.420;9.310;2024-03-17T05:07:25;6.22;;;1.65;;
82387;SDS011;72027;47.420;9.310;2024-03-17T05:09:53;2.88;;;0.88;;
82387;SDS011;72027;47.420;9.310;2024-03-17T05:12:20;3.13;;;1.05;;
82387;SDS011;72027;47.420;9.310;2024-03-17T05:14:48;2.97;;;1.23;;
82387;SDS011;72027;47.420;9.310;2024-03-17T05:17:15;3.47;;;1.67;;
82387;SDS011;72027;47.420;9.310;2024-03-17T05:19:42;2.90;;;1.40;;
82387;SDS011;72027;47.420;9.310;2024-03-17T05:22:09;9.38;;;2.45;;
82387;SDS011;72027;47.420;9.310;2024-03-17T05:24:36;6.05;;;1.35;;
82387;SDS011;72027;47.420;9.310;2024-03-17T05:27:03;5.93;;;1.40;;
82387;SDS011;72027;47.420;9.310;2024-03-17T05:29:30;2.53;;;1.20;;
82387;SDS011;72027;47.420;9.310;2024-03-17T05:31:59;6.70;;;1.40;;
82387;SDS011;72027;47.420;9.310;2024-03-17T05:34:28;10.25;;;1.73;;
82387;SDS011;72027;47.420;9.310;2024-03-17T05:36:55;4.88;;;1.58;;
82387;SDS011;72027;47.420;9.310;2024-03-17T05:41:48;3.80;;;1.20;;
82387;SDS011;72027;47.420;9.310;2024-03-17T05:44:15;8.10;;;2.20;;
82387;SDS011;72027;47.420;9.310;2024-03-17T05:46:43;3.55;;;1.17;;
82387;SDS011;72027;47.420;9.310;2024-03-17T05:49:11;1.35;;;0.90;;
82387;SDS011;72027;47.420;9.310;2024-03-17T05:51:38;4.53;;;1.15;;
82387;SDS011;72027;47.420;9.310;2024-03-17T05:54:05;3.03;;;1.40;;
82387;SDS011;72027;47.420;9.310;2024-03-17T05:56:32;10.68;;;2.15;;
82387;SDS011;72027;47.420;9.310;2024-03-17T05:59:00;3.70;;;1.45;;
82387;SDS011;72027;47.420;9.310;2024-03-17T06:01:27;3.65;;;2.17;;
82387;SDS011;72027;47.420;9.310;2024-03-17T06:03:54;4.30;;;1.77;;
82387;SDS011;72027;47.420;9.310;2024-03-17T06:06:23;3.72;;;1.65;;
82387;SDS011;72027;47.420;9.310;2024-03-17T06:08:49;3.90;;;2.30;;
82387;SDS011;72027;47.420;9.310;2024-03-17T06:11:16;6.75;;;2.15;;
82387;SDS011;72027;47.420;9.310;2024-03-17T06:13:43;3.80;;;1.50;;
82387;SDS011;72027;47.420;9.310;2024-03-17T06:16:10;8.32;;;2.20;;
82387;SDS011;72027;47.420;9.310;2024-03-17T06:21:04;8.95;;;1.02;;
82387;SDS011;72027;47.420;9.310;2024-03-17T06:23:33;3.85;;;1.50;;
82387;SDS011;72027;47.420;9.310;2024-03-17T06:26:00;1.23;;;0.95;;
82387;SDS011;72027;47.420;9.310;2024-03-17T06:28:27;2.20;;;1.50;;
82387;SDS011;72027;47.420;9.310;2024-03-17T06:30:56;7.00;;;2.20;;
82387;SDS011;72027;47.420;9.310;2024-03-17T06:33:25;4.15;;;1.73;;
82387;SDS011;72027;47.420;9.310;2024-03-17T06:35:53;7.22;;;2.22;;
82387;SDS011;72027;47.420;9.310;2024-03-17T06:38:20;2.72;;;1.38;;
82387;SDS011;72027;47.420;9.310;2024-03-17T06:43:18;5.25;;;1.73;;
82387;SDS011;72027;47.420;9.310;2024-03-17T06:45:55;10.57;;;2.85;;
82387;SDS011;72027;47.420;9.310;2024-03-17T06:50:50;11.40;;;2.95;;
82387;SDS011;72027;47.420;9.310;2024-03-17T06:53:18;6.45;;;1.55;;
82387;SDS011;72027;47.420;9.310;2024-03-17T06:55:53;2.20;;;1.40;;
82387;SDS011;72027;47.420;9.310;2024-03-17T06:58:22;4.32;;;1.33;;
82387;SDS011;72027;47.420;9.310;2024-03-17T07:00:52;3.97;;;1.52;;
82387;SDS011;72027;47.420;9.310;2024-03-17T07:03:20;3.85;;;1.55;;
82387;SDS011;72027;47.420;9.310;2024-03-17T07:05:52;5.13;;;1.85;;
82387;SDS011;72027;47.420;9.310;2024-03-17T07:08:20;4.10;;;1.55;;
82387;SDS011;72027;47.420;9.310;2024-03-17T07:10:59;3.65;;;1.40;;
82387;SDS011;72027;47.420;9.310;2024-03-17T07:13:28;6.95;;;2.33;;
82387;SDS011;72027;47.420;9.310;2024-03-17T07:15:56;8.30;;;1.98;;
82387;SDS011;72027;47.420;9.310;2024-03-17T07:18:24;1.83;;;1.48;;
82387;SDS011;72027;47.420;9.310;2024-03-17T07:20:53;5.60;;;1.73;;
82387;SDS011;72027;47.420;9.310;2024-03-17T07:23:19;6.30;;;1.30;;
82387;SDS011;72027;47.420;9.310;2024-03-17T07:28:21;3.55;;;1.25;;
82387;SDS011;72027;47.420;9.310;2024-03-17T07:30:49;7.60;;;1.42;;
82387;SDS011;72027;47.420;9.310;2024-03-17T07:33:18;7.40;;;1.40;;
82387;SDS011;72027;47.420;9.310;2024-03-17T07:35:46;3.55;;;1.02;;
82387;SDS011;72027;47.420;9.310;2024-03-17T07:38:14;4.78;;;1.38;;
82387;SDS011;72027;47.420;9.310;2024-03-17T07:40:41;4.20;;;1.30;;
82387;SDS011;72027;47.420;9.310;2024-03-17T07:43:07;4.80;;;1.27;;
82387;SDS011;72027;47.420;9.310;2024-03-17T07:45:36;3.15;;;1.35;;
82387;SDS011;72027;47.420;9.310;2024-03-17T07:48:03;5.25;;;1.58;;
82387;SDS011;72027;47.420;9.310;2024-03-17T07:50:31;4.30;;;1.00;;
82387;SDS011;72027;47.420;9.310;2024-03-17T07:53:00;6.53;;;1.38;;
82387;SDS011;72027;47.420;9.310;2024-03-17T07:55:28;3.80;;;1.40;;
82387;SDS011;72027;47.420;9.310;2024-03-17T07:57:56;2.35;;;1.33;;
82387;SDS011;72027;47.420;9.310;2024-03-17T08:00:23;4.13;;;1.20;;
82387;SDS011;72027;47.420;9.310;2024-03-17T08:02:52;3.33;;;1.20;;
82387;SDS011;72027;47.420;9.310;2024-03-17T08:05:19;4.57;;;1.45;;
82387;SDS011;72027;47.420;9.310;2024-03-17T08:07:46;7.88;;;1.52;;
82387;SDS011;72027;47.420;9.310;2024-03-17T08:10:13;2.25;;;1.13;;
82387;SDS011;72027;47.420;9.310;2024-03-17T08:12:40;6.40;;;1.83;;
82387;SDS011;72027;47.420;9.310;2024-03-17T08:15:08;4.18;;;1.15;;
82387;SDS011;72027;47.420;9.310;2024-03-17T08:17:36;5.78;;;1.63;;
82387;SDS011;72027;47.420;9.310;2024-03-17T08:20:05;10.07;;;2.13;;
82387;SDS011;72027;47.420;9.310;2024-03-17T08:22:32;3.22;;;1.15;;
82387;SDS011;72027;47.420;9.310;2024-03-17T08:24:59;7.72;;;1.38;;
82387;SDS011;72027;47.420;9.310;2024-03-17T08:29:53;9.47;;;1.87;;
82387;SDS011;72027;47.420;9.310;2024-03-17T08:32:20;2.85;;;1.35;;
82387;SDS011;72027;47.420;9.310;2024-03-17T08:34:47;2.92;;;1.20;;
82387;SDS011;72027;47.420;9.310;2024-03-17T08:37:15;6.63;;;1.35;;
82387;SDS011;72027;47.420;9.310;2024-03-17T08:39:42;6.15;;;1.80;;
82387;SDS011;72027;47.420;9.310;2024-03-17T08:44:36;3.13;;;1.17;;
82387;SDS011;72027;47.420;9.310;2024-03-17T08:47:03;7.85;;;1.92;;
82387;SDS011;72027;47.420;9.310;2024-03-17T08:49:30;9.52;;;2.08;;
82387;SDS011;72027;47.420;9.310;2024-03-17T08:51:57;10.77;;;2.17;;
82387;SDS011;72027;47.420;9.310;2024-03-17T08:54:25;5.05;;;1.60;;
82387;SDS011;72027;47.420;9.310;2024-03-17T08:56:52;5.68;;;2.08;;
82387;SDS011;72027;47.420;9.310;2024-03-17T08:59:19;6.78;;;1.65;;
82387;SDS011;72027;47.420;9.310;2024-03-17T09:04:13;3.05;;;1.65;;
82387;SDS011;72027;47.420;9.310;2024-03-17T09:06:40;2.85;;;1.30;;
82387;SDS011;72027;47.420;9.310;2024-03-17T09:09:07;4.78;;;1.58;;
82387;SDS011;72027;47.420;9.310;2024-03-17T09:11:35;5.50;;;1.65;;
82387;SDS011;72027;47.420;9.310;2024-03-17T09:14:02;9.40;;;4.15;;
82387;SDS011;72027;47.420;9.310;2024-03-17T09:21:24;3.97;;;1.15;;
82387;SDS011;72027;47.420;9.310;2024-03-17T09:23:51;5.93;;;1.45;;
82387;SDS011;72027;47.420;9.310;2024-03-17T09:26:18;6.57;;;1.40;;
82387;SDS011;72027;47.420;9.310;2024-03-17T09:28:46;5.25;;;1.30;;
82387;SDS011;72027;47.420;9.310;2024-03-17T09:31:13;4.57;;;1.50;;
82387;SDS011;72027;47.420;9.310;2024-03-17T09:33:40;4.47;;;1.25;;
82387;SDS011;72027;47.420;9.310;2024-03-17T09:36:08;4.18;;;1.60;;
82387;SDS011;72027;47.420;9.310;2024-03-17T09:38:36;4.85;;;1.15;;
82387;SDS011;72027;47.420;9.310;2024-03-17T09:41:05;13.10;;;1.58;;
82387;SDS011;72027;47.420;9.310;2024-03-17T09:43:33;4.82;;;1.27;;
82387;SDS011;72027;47.420;9.310;2024-03-17T09:46:03;5.18;;;1.30;;
82387;SDS011;72027;47.420;9.310;2024-03-17T09:48:31;5.28;;;1.55;;
82387;SDS011;72027;47.420;9.310;2024-03-17T09:50:59;8.77;;;1.70;;
82387;SDS011;72027;47.420;9.310;2024-03-17T09:53:27;4.88;;;1.25;;
82387;SDS011;72027;47.420;9.310;2024-03-17T09:55:57;6.13;;;1.42;;
82387;SDS011;72027;47.420;9.310;2024-03-17T09:58:25;5.97;;;1.48;;
82387;SDS011;72027;47.420;9.310;2024-03-17T10:00:52;4.78;;;1.33;;
82387;SDS011;72027;47.420;9.310;2024-03-17T10:06:17;7.00;;;1.85;;
82387;SDS011;72027;47.420;9.310;2024-03-17T10:08:45;5.95;;;2.03;;
82387;SDS011;72027;47.420;9.310;2024-03-17T10:11:14;4.78;;;1.48;;
82387;SDS011;72027;47.420;9.310;2024-03-17T10:13:42;6.53;;;1.52;;
82387;SDS011;72027;47.420;9.310;2024-03-17T10:16:22;2.83;;;1.20;;
82387;SDS011;72027;47.420;9.310;2024-03-17T10:19:03;8.73;;;1.48;;
82387;SDS011;72027;47.420;9.310;2024-03-17T10:21:33;6.15;;;2.17;;
82387;SDS011;72027;47.420;9.310;2024-03-17T10:24:04;6.78;;;1.33;;
82387;SDS011;72027;47.420;9.310;2024-03-17T10:26:37;8.57;;;1.90;;
82387;SDS011;72027;47.420;9.310;2024-03-17T10:29:15;7.20;;;1.58;;
82387;SDS011;72027;47.420;9.310;2024-03-17T10:31:47;8.88;;;1.83;;
82387;SDS011;72027;47.420;9.310;2024-03-17T10:34:15;3.25;;;1.05;;
82387;SDS011;72027;47.420;9.310;2024-03-17T10:36:44;5.90;;;1.48;;
82387;SDS011;72027;47.420;9.310;2024-03-17T10:39:19;3.40;;;1.30;;
82387;SDS011;72027;47.420;9.310;2024-03-17T10:41:55;4.18;;;1.67;;
82387;SDS011;72027;47.420;9.310;2024-03-17T10:44:23;4.45;;;1.50;;
82387;SDS011;72027;47.420;9.310;2024-03-17T10:46:50;2.88;;;1.73;;
82387;SDS011;72027;47.420;9.310;2024-03-17T10:49:22;7.70;;;2.17;;
82387;SDS011;72027;47.420;9.310;2024-03-17T10:51:54;5.68;;;1.67;;
82387;SDS011;72027;47.420;9.310;2024-03-17T10:54:24;6.50;;;1.70;;
82387;SDS011;72027;47.420;9.310;2024-03-17T10:56:54;6.10;;;1.85;;
82387;SDS011;72027;47.420;9.310;2024-03-17T10:59:26;2.92;;;1.67;;
82387;SDS011;72027;47.420;9.310;2024-03-17T11:02:05;10.15;;;3.25;;
82387;SDS011;72027;47.420;9.310;2024-03-17T11:04:50;7.03;;;1.75;;
82387;SDS011;72027;47.420;9.310;2024-03-17T11:07:18;2.63;;;1.40;;
82387;SDS011;72027;47.420;9.310;2024-03-17T11:09:47;5.78;;;2.00;;
82387;SDS011;72027;47.420;9.310;2024-03-17T11:21:17;8.48;;;2.78;;
82387;SDS011;72027;47.420;9.310;2024-03-17T11:23:57;6.80;;;2.15;;
82387;SDS011;72027;47.420;9.310;2024-03-17T11:26:32;4.13;;;2.17;;
82387;SDS011;72027;47.420;9.310;2024-03-17T11:29:00;9.43;;;2.80;;
82387;SDS011;72027;47.420;9.310;2024-03-17T11:31:39;6.82;;;2.72;;
82387;SDS011;72027;47.420;9.310;2024-03-17T11:39:46;7.32;;;3.55;;
82387;SDS011;72027;47.420;9.310;2024-03-17T11:42:15;7.13;;;3.40;;
82387;SDS011;72027;47.420;9.310;2024-03-17T11:44:42;5.28;;;2.38;;
82387;SDS011;72027;47.420;9.310;2024-03-17T11:47:09;8.93;;;2.30;;
82387;SDS011;72027;47.420;9.310;2024-03-17T11:49:37;6.35;;;3.00;;
82387;SDS011;72027;47.420;9.310;2024-03-17T11:52:09;5.43;;;2.70;;
82387;SDS011;72027;47.420;9.310;2024-03-17T11:54:40;11.20;;;3.43;;
82387;SDS011;72027;47.420;9.310;2024-03-17T11:57:08;8.80;;;3.20;;
82387;SDS011;72027;47.420;9.310;2024-03-17T11:59:37;7.93;;;3.15;;
82387;SDS011;72027;47.420;9.310;2024-03-17T12:02:09;9.35;;;2.67;;
82387;SDS011;72027;47.420;9.310;2024-03-17T12:04:38;7.43;;;2.47;;
82387;SDS011;72027;47.420;9.310;2024-03-17T12:07:10;6.05;;;1.83;;
82387;SDS011;72027;47.420;9.310;2024-03-17T12:09:40;5.53;;;2.42;;
82387;SDS011;72027;47.420;9.310;2024-03-17T12:12:09;9.07;;;2.08;;
82387;SDS011;72027;47.420;9.310;2024-03-17T12:14:38;4.18;;;1.63;;
82387;SDS011;72027;47.420;9.310;2024-03-17T12:19:33;7.63;;;2.03;;
82387;SDS011;72027;47.420;9.310;2024-03-17T12:22:00;7.65;;;2.03;;
82387;SDS011;72027;47.420;9.310;2024-03-17T12:24:30;6.70;;;1.80;;
82387;SDS011;72027;47.420;9.310;2024-03-17T12:26:58;5.25;;;1.77;;
82387;SDS011;72027;47.420;9.310;2024-03-17T12:29:28;7.82;;;1.58;;
82387;SDS011;72027;47.420;9.310;2024-03-17T12:31:56;3.30;;;1.50;;
82387;SDS011;72027;47.420;9.310;2024-03-17T12:34:24;7.43;;;1.75;;
82387;SDS011;72027;47.420;9.310;2024-03-17T12:36:52;6.85;;;2.05;;
82387;SDS011;72027;47.420;9.310;2024-03-17T12:39:20;6.47;;;2.20;;
82387;SDS011;72027;47.420;9.310;2024-03-17T12:42:02;5.55;;;1.88;;
82387;SDS011;72027;47.420;9.310;2024-03-17T12:44:30;9.00;;;1.92;;
82387;SDS011;72027;47.420;9.310;2024-03-17T12:46:58;5.65;;;1.90;;
82387;SDS011;72027;47.420;9.310;2024-03-17T12:49:27;2.70;;;1.55;;
82387;SDS011;72027;47.420;9.310;2024-03-17T12:51:54;5.60;;;1.88;;
82387;SDS011;72027;47.420;9.310;2024-03-17T12:54:22;3.85;;;2.00;;
82387;SDS011;72027;47.420;9.310;2024-03-17T12:56:50;8.82;;;2.20;;
82387;SDS011;72027;47.420;9.310;2024-03-17T12:59:39;3.78;;;1.98;;
82387;SDS011;72027;47.420;9.310;2024-03-17T13:02:24;7.32;;;2.03;;
82387;SDS011;72027;47.420;9.310;2024-03-17T13:07:41;9.98;;;2.33;;
82387;SDS011;72027;47.420;9.310;2024-03-17T13:10:12;8.80;;;2.80;;
82387;SDS011;72027;47.420;9.310;2024-03-17T13:12:40;6.28;;;2.10;;
82387;SDS011;72027;47.420;9.310;2024-03-17T13:15:10;7.50;;;2.60;;
82387;SDS011;72027;47.420;9.310;2024-03-17T13:17:39;7.80;;;2.00;;
82387;SDS011;72027;47.420;9.310;2024-03-17T13:20:06;6.93;;;2.15;;
82387;SDS011;72027;47.420;9.310;2024-03-17T13:22:37;7.18;;;2.17;;
82387;SDS011;72027;47.420;9.310;2024-03-17T13:25:07;7.30;;;2.13;;
82387;SDS011;72027;47.420;9.310;2024-03-17T13:27:37;9.73;;;2.00;;
82387;SDS011;72027;47.420;9.310;2024-03-17T13:30:04;3.95;;;2.25;;
82387;SDS011;72027;47.420;9.310;2024-03-17T13:32:36;3.40;;;1.80;;
82387;SDS011;72027;47.420;9.310;2024-03-17T13:35:03;6.07;;;2.05;;
82387;SDS011;72027;47.420;9.310;2024-03-17T13:37:31;10.80;;;2.28;;
82387;SDS011;72027;47.420;9.310;2024-03-17T13:39:58;2.97;;;1.95;;
82387;SDS011;72027;47.420;9.310;2024-03-17T13:42:28;6.05;;;2.10;;
82387;SDS011;72027;47.420;9.310;2024-03-17T13:44:55;4.18;;;1.77;;
82387;SDS011;72027;47.420;9.310;2024-03-17T13:47:23;6.07;;;1.98;;
82387;SDS011;72027;47.420;9.310;2024-03-17T13:49:51;9.63;;;2.45;;
82387;SDS011;72027;47.420;9.310;2024-03-17T13:52:21;5.80;;;3.40;;
82387;SDS011;72027;47.420;9.310;2024-03-17T13:54:49;8.93;;;2.58;;
82387;SDS011;72027;47.420;9.310;2024-03-17T13:57:17;5.93;;;2.25;;
82387;SDS011;72027;47.420;9.310;2024-03-17T13:59:44;9.02;;;2.78;;
82387;SDS011;72027;47.420;9.310;2024-03-17T14:02:13;3.88;;;2.30;;
82387;SDS011;72027;47.420;9.310;2024-03-17T14:04:40;5.05;;;2.10;;
82387;SDS011;72027;47.420;9.310;2024-03-17T14:07:09;6.30;;;2.13;;
82387;SDS011;72027;47.420;9.310;2024-03-17T14:09:36;5.00;;;1.70;;
82387;SDS011;72027;47.420;9.310;2024-03-17T14:12:03;6.13;;;2.30;;
82387;SDS011;72027;47.420;9.310;2024-03-17T14:14:30;4.18;;;1.98;;
82387;SDS011;72027;47.420;9.310;2024-03-17T14:16:57;7.40;;;2.38;;
82387;SDS011;72027;47.420;9.310;2024-03-17T14:19:24;6.13;;;2.10;;
82387;SDS011;72027;47.420;9.310;2024-03-17T14:21:52;7.78;;;2.55;;
82387;SDS011;72027;47.420;9.310;2024-03-17T14:24:21;5.50;;;2.35;;
82387;SDS011;72027;47.420;9.310;2024-03-17T14:26:48;7.07;;;2.10;;
82387;SDS011;72027;47.420;9.310;2024-03-17T14:29:15;6.68;;;2.05;;
82387;SDS011;72027;47.420;9.310;2024-03-17T14:31:43;6.30;;;1.73;;
82387;SDS011;72027;47.420;9.310;2024-03-17T14:34:11;6.03;;;1.90;;
82387;SDS011;72027;47.420;9.310;2024-03-17T14:36:38;7.28;;;1.80;;
82387;SDS011;72027;47.420;9.310;2024-03-17T14:39:05;4.90;;;2.33;;
82387;SDS011;72027;47.420;9.310;2024-03-17T14:41:35;5.03;;;1.88;;
82387;SDS011;72027;47.420;9.310;2024-03-17T14:44:02;8.02;;;1.85;;
82387;SDS011;72027;47.420;9.310;2024-03-17T14:46:32;4.65;;;2.00;;
82387;SDS011;72027;47.420;9.310;2024-03-17T14:48:59;6.47;;;2.38;;
82387;SDS011;72027;47.420;9.310;2024-03-17T14:51:26;3.40;;;1.40;;
82387;SDS011;72027;47.420;9.310;2024-03-17T14:53:53;4.97;;;1.80;;
82387;SDS011;72027;47.420;9.310;2024-03-17T14:56:23;7.88;;;2.30;;
82387;SDS011;72027;47.420;9.310;2024-03-17T14:58:52;5.82;;;1.88;;
82387;SDS011;72027;47.420;9.310;2024-03-17T15:01:19;6.80;;;1.95;;
82387;SDS011;72027;47.420;9.310;2024-03-17T15:03:46;4.38;;;1.70;;
82387;SDS011;72027;47.420;9.310;2024-03-17T15:06:13;10.95;;;2.08;;
82387;SDS011;72027;47.420;9.310;2024-03-17T15:08:43;4.90;;;2.08;;
82387;SDS011;72027;47.420;9.310;2024-03-17T15:11:11;3.63;;;1.95;;
82387;SDS011;72027;47.420;9.310;2024-03-17T15:13:38;4.95;;;1.38;;
82387;SDS011;72027;47.420;9.310;2024-03-17T15:16:09;6.72;;;2.22;;
82387;SDS011;72027;47.420;9.310;2024-03-17T15:18:37;4.28;;;1.48;;
82387;SDS011;72027;47.420;9.310;2024-03-17T15:21:04;4.65;;;1.65;;
82387;SDS011;72027;47.420;9.310;2024-03-17T15:23:31;5.03;;;1.77;;
82387;SDS011;72027;47.420;9.310;2024-03-17T15:25:59;2.97;;;1.33;;
82387;SDS011;72027;47.420;9.310;2024-03-17T15:28:31;1.20;;;1.08;;
82387;SDS011;72027;47.420;9.310;2024-03-17T15:30:58;5.20;;;1.60;;
82387;SDS011;72027;47.420;9.310;2024-03-17T15:33:29;7.35;;;1.30;;
82387;SDS011;72027;47.420;9.310;2024-03-17T15:35:56;2.65;;;1.00;;
82387;SDS011;72027;47.420;9.310;2024-03-17T15:38:23;1.45;;;0.70;;
82387;SDS011;72027;47.420;9.310;2024-03-17T15:40:51;2.95;;;0.80;;
82387;SDS011;72027;47.420;9.310;2024-03-17T15:43:18;1.10;;;0.73;;
82387;SDS011;72027;47.420;9.310;2024-03-17T15:45:45;4.22;;;0.82;;
82387;SDS011;72027;47.420;9.310;2024-03-17T15:48:12;2.92;;;0.70;;
82387;SDS011;72027;47.420;9.310;2024-03-17T15:53:08;4.03;;;1.10;;